sensor_id;sensor_type;location;lat;lon;timestamp;P1;durP1;ratioP1;P2;durP2;ratioP2
83487;SDS011;73424;49.994;8.184;2024-01-06T00:00:18;4.67;;;1.97;;
83487;SDS011;73424;49.994;8.184;2024-01-06T00:02:43;11.52;;;3.15;;
83487;SDS011;73424;49.994;8.184;2024-01-06T00:05:09;5.30;;;2.08;;
83487;SDS011;73424;49.994;8.184;2024-01-06T00:07:34;4.88;;;1.40;;
83487;SDS011;73424;49.994;8.184;2024-01-06T00:09:59;4.68;;;1.85;;
83487;SDS011;73424;49.994;8.184;2024-01-06T00:12:24;4.00;;;1.73;;
83487;SDS011;73424;49.994;8.184;2024-01-06T00:14:50;3.73;;;1.23;;
83487;SDS011;73424;49.994;8.184;2024-01-06T00:17:15;5.30;;;1.57;;
83487;SDS011;73424;49.994;8.184;2024-01-06T00:19:41;3.50;;;1.58;;
83487;SDS011;73424;49.994;8.184;2024-01-06T00:22:06;3.73;;;1.43;;
83487;SDS011;73424;49.994;8.184;2024-01-06T00:24:31;4.38;;;1.55;;
83487;SDS011;73424;49.994;8.184;2024-01-06T00:26:56;4.53;;;1.30;;
83487;SDS011;73424;49.994;8.184;2024-01-06T00:29:22;4.67;;;1.20;;
83487;SDS011;73424;49.994;8.184;2024-01-06T00:31:47;4.65;;;1.02;;
83487;SDS011;73424;49.994;8.184;2024-01-06T00:34:13;4.78;;;1.70;;
83487;SDS011;73424;49.994;8.184;2024-01-06T00:36:38;5.90;;;2.00;;
83487;SDS011;73424;49.994;8.184;2024-01-06T00:39:03;6.73;;;2.67;;
83487;SDS011;73424;49.994;8.184;2024-01-06T00:41:28;6.45;;;2.70;;
83487;SDS011;73424;49.994;8.184;2024-01-06T00:43:54;8.38;;;3.17;;
83487;SDS011;73424;49.994;8.184;2024-01-06T00:46:19;9.83;;;3.00;;
83487;SDS011;73424;49.994;8.184;2024-01-06T00:48:44;5.67;;;2.83;;
83487;SDS011;73424;49.994;8.184;2024-01-06T00:51:10;7.53;;;2.90;;
83487;SDS011;73424;49.994;8.184;2024-01-06T00:53:35;6.73;;;2.87;;
83487;SDS011;73424;49.994;8.184;2024-01-06T00:56:00;8.17;;;3.33;;
83487;SDS011;73424;49.994;8.184;2024-01-06T00:58:25;6.63;;;2.58;;
83487;SDS011;73424;49.994;8.184;2024-01-06T01:00:51;8.07;;;3.20;;
83487;SDS011;73424;49.994;8.184;2024-01-06T01:03:16;8.67;;;3.13;;
83487;SDS011;73424;49.994;8.184;2024-01-06T01:05:41;8.93;;;2.83;;
83487;SDS011;73424;49.994;8.184;2024-01-06T01:08:06;8.75;;;2.92;;
83487;SDS011;73424;49.994;8.184;2024-01-06T01:10:32;6.03;;;2.93;;
83487;SDS011;73424;49.994;8.184;2024-01-06T01:12:57;8.93;;;2.63;;
83487;SDS011;73424;49.994;8.184;2024-01-06T01:15:22;7.00;;;3.97;;
83487;SDS011;73424;49.994;8.184;2024-01-06T01:17:47;6.27;;;2.93;;
83487;SDS011;73424;49.994;8.184;2024-01-06T01:20:13;7.93;;;2.70;;
83487;SDS011;73424;49.994;8.184;2024-01-06T01:22:38;6.63;;;2.67;;
83487;SDS011;73424;49.994;8.184;2024-01-06T01:25:03;10.77;;;2.83;;
83487;SDS011;73424;49.994;8.184;2024-01-06T01:27:32;8.63;;;3.00;;
83487;SDS011;73424;49.994;8.184;2024-01-06T01:29:58;7.95;;;2.50;;
83487;SDS011;73424;49.994;8.184;2024-01-06T01:32:23;7.60;;;2.28;;
83487;SDS011;73424;49.994;8.184;2024-01-06T01:34:49;5.77;;;2.83;;
83487;SDS011;73424;49.994;8.184;2024-01-06T01:37:15;7.83;;;3.03;;
83487;SDS011;73424;49.994;8.184;2024-01-06T01:39:40;8.15;;;3.03;;
83487;SDS011;73424;49.994;8.184;2024-01-06T01:42:05;7.47;;;3.03;;
83487;SDS011;73424;49.994;8.184;2024-01-06T01:44:31;9.55;;;3.22;;
83487;SDS011;73424;49.994;8.184;2024-01-06T01:46:56;8.57;;;3.13;;
83487;SDS011;73424;49.994;8.184;2024-01-06T01:49:21;8.73;;;3.23;;
83487;SDS011;73424;49.994;8.184;2024-01-06T01:51:47;7.38;;;3.00;;
83487;SDS011;73424;49.994;8.184;2024-01-06T01:54:14;6.18;;;2.75;;
83487;SDS011;73424;49.994;8.184;2024-01-06T01:56:39;5.47;;;2.63;;
83487;SDS011;73424;49.994;8.184;2024-01-06T01:59:09;7.97;;;3.17;;
83487;SDS011;73424;49.994;8.184;2024-01-06T02:04:01;9.63;;;3.53;;
83487;SDS011;73424;49.994;8.184;2024-01-06T02:06:27;9.13;;;2.70;;
83487;SDS011;73424;49.994;8.184;2024-01-06T02:08:52;5.50;;;2.72;;
83487;SDS011;73424;49.994;8.184;2024-01-06T02:11:18;9.93;;;2.95;;
83487;SDS011;73424;49.994;8.184;2024-01-06T02:13:43;4.77;;;2.50;;
83487;SDS011;73424;49.994;8.184;2024-01-06T02:16:08;9.30;;;3.00;;
83487;SDS011;73424;49.994;8.184;2024-01-06T02:18:34;7.18;;;2.85;;
83487;SDS011;73424;49.994;8.184;2024-01-06T02:21:00;6.40;;;2.85;;
83487;SDS011;73424;49.994;8.184;2024-01-06T02:23:26;5.07;;;2.67;;
83487;SDS011;73424;49.994;8.184;2024-01-06T02:25:52;7.40;;;2.70;;
83487;SDS011;73424;49.994;8.184;2024-01-06T02:28:17;5.75;;;3.22;;
83487;SDS011;73424;49.994;8.184;2024-01-06T02:30:43;6.78;;;2.35;;
83487;SDS011;73424;49.994;8.184;2024-01-06T02:33:08;5.23;;;2.23;;
83487;SDS011;73424;49.994;8.184;2024-01-06T02:35:33;6.15;;;2.55;;
83487;SDS011;73424;49.994;8.184;2024-01-06T02:37:59;7.97;;;2.35;;
83487;SDS011;73424;49.994;8.184;2024-01-06T02:40:25;8.80;;;2.67;;
83487;SDS011;73424;49.994;8.184;2024-01-06T02:42:51;3.60;;;2.20;;
83487;SDS011;73424;49.994;8.184;2024-01-06T02:45:16;6.60;;;2.40;;
83487;SDS011;73424;49.994;8.184;2024-01-06T02:47:41;6.27;;;2.10;;
83487;SDS011;73424;49.994;8.184;2024-01-06T02:50:07;5.83;;;2.53;;
83487;SDS011;73424;49.994;8.184;2024-01-06T02:52:32;7.03;;;2.22;;
83487;SDS011;73424;49.994;8.184;2024-01-06T02:54:57;4.10;;;2.07;;
83487;SDS011;73424;49.994;8.184;2024-01-06T02:57:23;7.65;;;2.20;;
83487;SDS011;73424;49.994;8.184;2024-01-06T02:59:48;4.40;;;1.80;;
83487;SDS011;73424;49.994;8.184;2024-01-06T03:02:13;4.13;;;1.60;;
83487;SDS011;73424;49.994;8.184;2024-01-06T03:04:39;3.90;;;2.00;;
83487;SDS011;73424;49.994;8.184;2024-01-06T03:07:04;8.17;;;2.10;;
83487;SDS011;73424;49.994;8.184;2024-01-06T03:09:29;3.47;;;1.80;;
83487;SDS011;73424;49.994;8.184;2024-01-06T03:11:55;8.27;;;2.30;;
83487;SDS011;73424;49.994;8.184;2024-01-06T03:14:20;5.18;;;2.22;;
83487;SDS011;73424;49.994;8.184;2024-01-06T03:16:45;6.07;;;2.43;;
83487;SDS011;73424;49.994;8.184;2024-01-06T03:19:10;5.90;;;2.03;;
83487;SDS011;73424;49.994;8.184;2024-01-06T03:21:36;7.30;;;2.60;;
83487;SDS011;73424;49.994;8.184;2024-01-06T03:24:01;4.77;;;2.20;;
83487;SDS011;73424;49.994;8.184;2024-01-06T03:26:26;8.20;;;1.80;;
83487;SDS011;73424;49.994;8.184;2024-01-06T03:28:51;4.63;;;2.37;;
83487;SDS011;73424;49.994;8.184;2024-01-06T03:31:17;5.90;;;2.33;;
83487;SDS011;73424;49.994;8.184;2024-01-06T03:33:43;8.53;;;2.53;;
83487;SDS011;73424;49.994;8.184;2024-01-06T03:36:09;5.53;;;2.08;;
83487;SDS011;73424;49.994;8.184;2024-01-06T03:38:34;6.25;;;2.13;;
83487;SDS011;73424;49.994;8.184;2024-01-06T03:40:59;5.20;;;2.25;;
83487;SDS011;73424;49.994;8.184;2024-01-06T03:43:25;8.13;;;2.35;;
83487;SDS011;73424;49.994;8.184;2024-01-06T03:45:50;5.13;;;1.90;;
83487;SDS011;73424;49.994;8.184;2024-01-06T03:48:15;5.70;;;2.85;;
83487;SDS011;73424;49.994;8.184;2024-01-06T03:50:41;5.25;;;1.73;;
83487;SDS011;73424;49.994;8.184;2024-01-06T03:53:06;4.50;;;1.90;;
83487;SDS011;73424;49.994;8.184;2024-01-06T03:55:31;4.53;;;2.03;;
83487;SDS011;73424;49.994;8.184;2024-01-06T03:57:57;5.30;;;1.63;;
83487;SDS011;73424;49.994;8.184;2024-01-06T04:00:22;3.60;;;1.80;;
83487;SDS011;73424;49.994;8.184;2024-01-06T04:02:50;7.78;;;2.60;;
83487;SDS011;73424;49.994;8.184;2024-01-06T04:05:15;6.70;;;2.17;;
83487;SDS011;73424;49.994;8.184;2024-01-06T04:07:40;4.50;;;2.20;;
83487;SDS011;73424;49.994;8.184;2024-01-06T04:10:06;4.03;;;2.17;;
83487;SDS011;73424;49.994;8.184;2024-01-06T04:12:31;5.32;;;2.35;;
83487;SDS011;73424;49.994;8.184;2024-01-06T04:14:56;5.60;;;2.57;;
83487;SDS011;73424;49.994;8.184;2024-01-06T04:17:21;5.33;;;2.00;;
83487;SDS011;73424;49.994;8.184;2024-01-06T04:19:47;3.67;;;1.33;;
83487;SDS011;73424;49.994;8.184;2024-01-06T04:22:12;5.03;;;1.80;;
83487;SDS011;73424;49.994;8.184;2024-01-06T04:24:37;3.30;;;1.48;;
83487;SDS011;73424;49.994;8.184;2024-01-06T04:27:04;5.03;;;1.77;;
83487;SDS011;73424;49.994;8.184;2024-01-06T04:29:29;5.63;;;1.73;;
83487;SDS011;73424;49.994;8.184;2024-01-06T04:31:55;4.13;;;1.95;;
83487;SDS011;73424;49.994;8.184;2024-01-06T04:34:20;4.30;;;1.58;;
83487;SDS011;73424;49.994;8.184;2024-01-06T04:36:45;4.23;;;2.10;;
83487;SDS011;73424;49.994;8.184;2024-01-06T04:39:10;10.77;;;2.08;;
83487;SDS011;73424;49.994;8.184;2024-01-06T04:41:37;6.15;;;2.38;;
83487;SDS011;73424;49.994;8.184;2024-01-06T04:44:03;2.75;;;1.63;;
83487;SDS011;73424;49.994;8.184;2024-01-06T04:46:28;3.85;;;1.88;;
83487;SDS011;73424;49.994;8.184;2024-01-06T04:48:55;5.90;;;1.70;;
83487;SDS011;73424;49.994;8.184;2024-01-06T04:51:20;5.37;;;1.50;;
83487;SDS011;73424;49.994;8.184;2024-01-06T04:53:46;7.18;;;2.58;;
83487;SDS011;73424;49.994;8.184;2024-01-06T04:56:11;4.23;;;2.03;;
83487;SDS011;73424;49.994;8.184;2024-01-06T04:58:36;4.53;;;2.03;;
83487;SDS011;73424;49.994;8.184;2024-01-06T05:01:02;8.10;;;2.43;;
83487;SDS011;73424;49.994;8.184;2024-01-06T05:03:27;4.13;;;2.13;;
83487;SDS011;73424;49.994;8.184;2024-01-06T05:05:52;3.87;;;1.80;;
83487;SDS011;73424;49.994;8.184;2024-01-06T05:08:18;3.97;;;2.10;;
83487;SDS011;73424;49.994;8.184;2024-01-06T05:10:44;5.20;;;1.73;;
83487;SDS011;73424;49.994;8.184;2024-01-06T05:13:09;6.45;;;1.80;;
83487;SDS011;73424;49.994;8.184;2024-01-06T05:15:34;3.63;;;1.83;;
83487;SDS011;73424;49.994;8.184;2024-01-06T05:18:00;3.43;;;1.87;;
83487;SDS011;73424;49.994;8.184;2024-01-06T05:20:25;6.57;;;2.63;;
83487;SDS011;73424;49.994;8.184;2024-01-06T05:22:50;5.50;;;1.70;;
83487;SDS011;73424;49.994;8.184;2024-01-06T05:25:16;6.10;;;1.97;;
83487;SDS011;73424;49.994;8.184;2024-01-06T05:27:41;5.22;;;1.63;;
83487;SDS011;73424;49.994;8.184;2024-01-06T05:30:06;3.70;;;1.43;;
83487;SDS011;73424;49.994;8.184;2024-01-06T05:32:33;3.85;;;3.38;;
83487;SDS011;73424;49.994;8.184;2024-01-06T05:34:58;4.25;;;1.50;;
83487;SDS011;73424;49.994;8.184;2024-01-06T05:37:23;4.77;;;1.70;;
83487;SDS011;73424;49.994;8.184;2024-01-06T05:39:48;3.53;;;1.60;;
83487;SDS011;73424;49.994;8.184;2024-01-06T05:42:14;3.93;;;1.10;;
83487;SDS011;73424;49.994;8.184;2024-01-06T05:44:42;4.03;;;1.40;;
83487;SDS011;73424;49.994;8.184;2024-01-06T05:47:07;3.78;;;1.30;;
83487;SDS011;73424;49.994;8.184;2024-01-06T05:49:33;4.95;;;1.42;;
83487;SDS011;73424;49.994;8.184;2024-01-06T05:51:58;3.47;;;1.70;;
83487;SDS011;73424;49.994;8.184;2024-01-06T05:54:23;4.03;;;1.70;;
83487;SDS011;73424;49.994;8.184;2024-01-06T05:56:49;4.73;;;1.60;;
83487;SDS011;73424;49.994;8.184;2024-01-06T05:59:14;4.23;;;1.73;;
83487;SDS011;73424;49.994;8.184;2024-01-06T06:01:39;5.33;;;1.83;;
83487;SDS011;73424;49.994;8.184;2024-01-06T06:04:05;5.72;;;1.83;;
83487;SDS011;73424;49.994;8.184;2024-01-06T06:06:30;3.60;;;1.60;;
83487;SDS011;73424;49.994;8.184;2024-01-06T06:08:55;4.67;;;1.60;;
83487;SDS011;73424;49.994;8.184;2024-01-06T06:11:21;4.35;;;1.55;;
83487;SDS011;73424;49.994;8.184;2024-01-06T06:13:46;4.93;;;1.90;;
83487;SDS011;73424;49.994;8.184;2024-01-06T06:16:11;4.33;;;1.73;;
83487;SDS011;73424;49.994;8.184;2024-01-06T06:18:37;5.10;;;1.98;;
83487;SDS011;73424;49.994;8.184;2024-01-06T06:21:08;8.18;;;2.17;;
83487;SDS011;73424;49.994;8.184;2024-01-06T06:23:34;6.47;;;2.00;;
83487;SDS011;73424;49.994;8.184;2024-01-06T06:26:03;4.28;;;2.25;;
83487;SDS011;73424;49.994;8.184;2024-01-06T06:28:30;5.72;;;1.80;;
83487;SDS011;73424;49.994;8.184;2024-01-06T06:30:55;5.37;;;2.00;;
83487;SDS011;73424;49.994;8.184;2024-01-06T06:33:20;4.50;;;1.83;;
83487;SDS011;73424;49.994;8.184;2024-01-06T06:35:45;3.67;;;1.90;;
83487;SDS011;73424;49.994;8.184;2024-01-06T06:38:11;3.43;;;1.70;;
83487;SDS011;73424;49.994;8.184;2024-01-06T06:40:36;4.70;;;1.92;;
83487;SDS011;73424;49.994;8.184;2024-01-06T06:43:02;4.60;;;2.17;;
83487;SDS011;73424;49.994;8.184;2024-01-06T06:45:27;3.55;;;2.22;;
83487;SDS011;73424;49.994;8.184;2024-01-06T06:47:52;6.00;;;3.63;;
83487;SDS011;73424;49.994;8.184;2024-01-06T06:50:18;6.87;;;4.03;;
83487;SDS011;73424;49.994;8.184;2024-01-06T06:52:43;7.05;;;2.78;;
83487;SDS011;73424;49.994;8.184;2024-01-06T06:55:09;5.47;;;2.05;;
83487;SDS011;73424;49.994;8.184;2024-01-06T06:57:35;4.07;;;2.03;;
83487;SDS011;73424;49.994;8.184;2024-01-06T07:00:00;4.47;;;2.03;;
83487;SDS011;73424;49.994;8.184;2024-01-06T07:02:25;3.50;;;1.90;;
83487;SDS011;73424;49.994;8.184;2024-01-06T07:04:51;4.43;;;1.83;;
83487;SDS011;73424;49.994;8.184;2024-01-06T07:07:16;4.68;;;1.90;;
83487;SDS011;73424;49.994;8.184;2024-01-06T07:09:42;3.90;;;2.03;;
83487;SDS011;73424;49.994;8.184;2024-01-06T07:12:07;6.17;;;1.90;;
83487;SDS011;73424;49.994;8.184;2024-01-06T07:14:33;5.18;;;1.60;;
83487;SDS011;73424;49.994;8.184;2024-01-06T07:16:58;5.18;;;1.80;;
83487;SDS011;73424;49.994;8.184;2024-01-06T07:19:24;4.00;;;1.92;;
83487;SDS011;73424;49.994;8.184;2024-01-06T07:21:49;4.20;;;1.88;;
83487;SDS011;73424;49.994;8.184;2024-01-06T07:24:15;6.63;;;1.87;;
83487;SDS011;73424;49.994;8.184;2024-01-06T07:26:40;6.38;;;1.90;;
83487;SDS011;73424;49.994;8.184;2024-01-06T07:29:05;4.90;;;2.00;;
83487;SDS011;73424;49.994;8.184;2024-01-06T07:31:32;5.63;;;1.98;;
83487;SDS011;73424;49.994;8.184;2024-01-06T07:33:57;5.47;;;1.77;;
83487;SDS011;73424;49.994;8.184;2024-01-06T07:36:22;3.67;;;2.03;;
83487;SDS011;73424;49.994;8.184;2024-01-06T07:38:47;7.23;;;1.87;;
83487;SDS011;73424;49.994;8.184;2024-01-06T07:41:13;4.27;;;1.43;;
83487;SDS011;73424;49.994;8.184;2024-01-06T07:43:38;3.85;;;2.03;;
83487;SDS011;73424;49.994;8.184;2024-01-06T07:46:03;3.20;;;1.43;;
83487;SDS011;73424;49.994;8.184;2024-01-06T07:48:31;6.25;;;1.90;;
83487;SDS011;73424;49.994;8.184;2024-01-06T07:50:57;5.23;;;1.80;;
83487;SDS011;73424;49.994;8.184;2024-01-06T07:53:22;4.13;;;2.10;;
83487;SDS011;73424;49.994;8.184;2024-01-06T07:55:47;4.83;;;2.30;;
83487;SDS011;73424;49.994;8.184;2024-01-06T07:58:12;4.00;;;1.70;;
83487;SDS011;73424;49.994;8.184;2024-01-06T08:00:38;4.63;;;1.92;;
83487;SDS011;73424;49.994;8.184;2024-01-06T08:03:03;5.27;;;2.73;;
83487;SDS011;73424;49.994;8.184;2024-01-06T08:05:31;5.25;;;1.75;;
83487;SDS011;73424;49.994;8.184;2024-01-06T08:07:56;7.50;;;2.40;;
83487;SDS011;73424;49.994;8.184;2024-01-06T08:10:21;4.97;;;2.10;;
83487;SDS011;73424;49.994;8.184;2024-01-06T08:12:46;4.97;;;2.23;;
83487;SDS011;73424;49.994;8.184;2024-01-06T08:15:13;4.55;;;1.65;;
83487;SDS011;73424;49.994;8.184;2024-01-06T08:17:38;7.80;;;2.38;;
83487;SDS011;73424;49.994;8.184;2024-01-06T08:20:05;4.47;;;2.30;;
83487;SDS011;73424;49.994;8.184;2024-01-06T08:22:31;4.38;;;1.85;;
83487;SDS011;73424;49.994;8.184;2024-01-06T08:24:57;4.73;;;1.57;;
83487;SDS011;73424;49.994;8.184;2024-01-06T08:27:22;5.80;;;2.15;;
83487;SDS011;73424;49.994;8.184;2024-01-06T08:29:48;2.65;;;1.50;;
83487;SDS011;73424;49.994;8.184;2024-01-06T08:32:14;4.47;;;1.80;;
83487;SDS011;73424;49.994;8.184;2024-01-06T08:34:41;4.10;;;2.08;;
83487;SDS011;73424;49.994;8.184;2024-01-06T08:37:06;3.35;;;1.77;;
83487;SDS011;73424;49.994;8.184;2024-01-06T08:39:32;4.32;;;2.10;;
83487;SDS011;73424;49.994;8.184;2024-01-06T08:41:57;5.45;;;2.03;;
83487;SDS011;73424;49.994;8.184;2024-01-06T08:44:23;4.07;;;2.72;;
83487;SDS011;73424;49.994;8.184;2024-01-06T08:46:48;8.43;;;2.42;;
83487;SDS011;73424;49.994;8.184;2024-01-06T08:49:14;4.60;;;1.87;;
83487;SDS011;73424;49.994;8.184;2024-01-06T08:51:39;3.53;;;1.90;;
83487;SDS011;73424;49.994;8.184;2024-01-06T08:54:04;4.60;;;2.03;;
83487;SDS011;73424;49.994;8.184;2024-01-06T08:56:30;5.00;;;2.20;;
83487;SDS011;73424;49.994;8.184;2024-01-06T08:58:56;5.90;;;2.15;;
83487;SDS011;73424;49.994;8.184;2024-01-06T09:01:22;3.75;;;2.17;;
83487;SDS011;73424;49.994;8.184;2024-01-06T09:03:47;5.85;;;2.20;;
83487;SDS011;73424;49.994;8.184;2024-01-06T09:06:13;4.30;;;2.50;;
83487;SDS011;73424;49.994;8.184;2024-01-06T09:08:39;7.32;;;3.28;;
83487;SDS011;73424;49.994;8.184;2024-01-06T09:11:04;4.73;;;2.23;;
83487;SDS011;73424;49.994;8.184;2024-01-06T09:13:29;7.23;;;2.30;;
83487;SDS011;73424;49.994;8.184;2024-01-06T09:15:54;8.93;;;3.13;;
83487;SDS011;73424;49.994;8.184;2024-01-06T09:18:20;8.23;;;5.07;;
83487;SDS011;73424;49.994;8.184;2024-01-06T09:20:45;6.90;;;4.15;;
83487;SDS011;73424;49.994;8.184;2024-01-06T09:23:14;4.55;;;2.42;;
83487;SDS011;73424;49.994;8.184;2024-01-06T09:25:39;5.30;;;2.87;;
83487;SDS011;73424;49.994;8.184;2024-01-06T09:28:07;3.78;;;2.35;;
83487;SDS011;73424;49.994;8.184;2024-01-06T09:30:32;6.53;;;2.50;;
83487;SDS011;73424;49.994;8.184;2024-01-06T09:32:57;5.07;;;2.13;;
83487;SDS011;73424;49.994;8.184;2024-01-06T09:35:23;5.55;;;2.63;;
83487;SDS011;73424;49.994;8.184;2024-01-06T09:37:48;4.25;;;2.30;;
83487;SDS011;73424;49.994;8.184;2024-01-06T09:40:14;5.10;;;2.55;;
83487;SDS011;73424;49.994;8.184;2024-01-06T09:42:46;4.47;;;3.20;;
83487;SDS011;73424;49.994;8.184;2024-01-06T09:45:12;5.90;;;2.67;;
83487;SDS011;73424;49.994;8.184;2024-01-06T09:47:37;5.57;;;2.53;;
83487;SDS011;73424;49.994;8.184;2024-01-06T09:50:06;4.82;;;2.50;;
83487;SDS011;73424;49.994;8.184;2024-01-06T09:52:34;6.85;;;2.65;;
83487;SDS011;73424;49.994;8.184;2024-01-06T09:55:11;4.60;;;2.65;;
83487;SDS011;73424;49.994;8.184;2024-01-06T09:57:37;6.38;;;2.85;;
83487;SDS011;73424;49.994;8.184;2024-01-06T10:00:03;5.95;;;2.65;;
83487;SDS011;73424;49.994;8.184;2024-01-06T10:02:29;3.72;;;2.50;;
83487;SDS011;73424;49.994;8.184;2024-01-06T10:04:56;5.65;;;2.70;;
83487;SDS011;73424;49.994;8.184;2024-01-06T10:07:22;5.35;;;2.50;;
83487;SDS011;73424;49.994;8.184;2024-01-06T10:09:47;5.07;;;3.00;;
83487;SDS011;73424;49.994;8.184;2024-01-06T10:12:12;7.77;;;2.60;;
83487;SDS011;73424;49.994;8.184;2024-01-06T10:14:37;6.53;;;2.75;;
83487;SDS011;73424;49.994;8.184;2024-01-06T10:17:07;5.30;;;2.75;;
83487;SDS011;73424;49.994;8.184;2024-01-06T10:19:33;4.13;;;2.78;;
83487;SDS011;73424;49.994;8.184;2024-01-06T10:22:00;5.72;;;2.63;;
83487;SDS011;73424;49.994;8.184;2024-01-06T10:24:27;5.97;;;3.00;;
83487;SDS011;73424;49.994;8.184;2024-01-06T10:26:52;5.57;;;2.72;;
83487;SDS011;73424;49.994;8.184;2024-01-06T10:29:17;4.93;;;2.92;;
83487;SDS011;73424;49.994;8.184;2024-01-06T10:31:43;4.70;;;2.97;;
83487;SDS011;73424;49.994;8.184;2024-01-06T10:34:08;5.15;;;3.22;;
83487;SDS011;73424;49.994;8.184;2024-01-06T10:36:34;7.15;;;3.03;;
83487;SDS011;73424;49.994;8.184;2024-01-06T10:39:01;4.68;;;2.83;;
83487;SDS011;73424;49.994;8.184;2024-01-06T10:41:28;4.68;;;2.80;;
83487;SDS011;73424;49.994;8.184;2024-01-06T10:43:55;7.78;;;3.17;;
83487;SDS011;73424;49.994;8.184;2024-01-06T10:46:23;5.15;;;2.70;;
83487;SDS011;73424;49.994;8.184;2024-01-06T10:48:50;4.50;;;2.50;;
83487;SDS011;73424;49.994;8.184;2024-01-06T10:51:17;7.07;;;3.42;;
83487;SDS011;73424;49.994;8.184;2024-01-06T10:53:43;5.68;;;2.90;;
83487;SDS011;73424;49.994;8.184;2024-01-06T10:56:08;4.93;;;2.78;;
83487;SDS011;73424;49.994;8.184;2024-01-06T10:58:35;8.68;;;3.38;;
83487;SDS011;73424;49.994;8.184;2024-01-06T11:01:12;5.75;;;2.90;;
83487;SDS011;73424;49.994;8.184;2024-01-06T11:03:38;6.28;;;4.00;;
83487;SDS011;73424;49.994;8.184;2024-01-06T11:06:06;4.70;;;3.00;;
83487;SDS011;73424;49.994;8.184;2024-01-06T11:08:36;5.03;;;3.78;;
83487;SDS011;73424;49.994;8.184;2024-01-06T11:11:14;6.95;;;3.22;;
83487;SDS011;73424;49.994;8.184;2024-01-06T11:13:43;5.75;;;3.80;;
83487;SDS011;73424;49.994;8.184;2024-01-06T11:16:10;8.50;;;3.60;;
83487;SDS011;73424;49.994;8.184;2024-01-06T11:18:39;4.15;;;3.13;;
83487;SDS011;73424;49.994;8.184;2024-01-06T11:23:42;4.93;;;3.47;;
83487;SDS011;73424;49.994;8.184;2024-01-06T11:26:08;4.63;;;3.25;;
83487;SDS011;73424;49.994;8.184;2024-01-06T11:28:44;6.07;;;3.75;;
83487;SDS011;73424;49.994;8.184;2024-01-06T11:31:12;9.52;;;5.05;;
83487;SDS011;73424;49.994;8.184;2024-01-06T11:33:41;6.32;;;3.20;;
83487;SDS011;73424;49.994;8.184;2024-01-06T11:36:12;4.85;;;3.45;;
83487;SDS011;73424;49.994;8.184;2024-01-06T11:38:40;5.88;;;3.38;;
83487;SDS011;73424;49.994;8.184;2024-01-06T11:41:08;6.70;;;4.15;;
83487;SDS011;73424;49.994;8.184;2024-01-06T11:43:37;5.85;;;3.45;;
83487;SDS011;73424;49.994;8.184;2024-01-06T11:46:05;5.47;;;3.47;;
83487;SDS011;73424;49.994;8.184;2024-01-06T11:48:32;5.50;;;3.55;;
83487;SDS011;73424;49.994;8.184;2024-01-06T11:50:57;8.30;;;3.72;;
83487;SDS011;73424;49.994;8.184;2024-01-06T11:53:23;6.43;;;4.32;;
83487;SDS011;73424;49.994;8.184;2024-01-06T11:55:52;8.02;;;3.88;;
83487;SDS011;73424;49.994;8.184;2024-01-06T11:58:17;6.72;;;3.75;;
83487;SDS011;73424;49.994;8.184;2024-01-06T12:00:42;6.65;;;4.03;;
83487;SDS011;73424;49.994;8.184;2024-01-06T12:03:08;6.55;;;4.32;;
83487;SDS011;73424;49.994;8.184;2024-01-06T12:05:34;6.95;;;4.53;;
83487;SDS011;73424;49.994;8.184;2024-01-06T12:08:01;6.93;;;4.35;;
83487;SDS011;73424;49.994;8.184;2024-01-06T12:10:29;7.32;;;5.07;;
83487;SDS011;73424;49.994;8.184;2024-01-06T12:12:55;9.55;;;4.70;;
83487;SDS011;73424;49.994;8.184;2024-01-06T12:15:23;7.35;;;4.55;;
83487;SDS011;73424;49.994;8.184;2024-01-06T12:17:48;7.75;;;4.60;;
83487;SDS011;73424;49.994;8.184;2024-01-06T12:20:14;6.77;;;4.60;;
83487;SDS011;73424;49.994;8.184;2024-01-06T12:22:39;8.80;;;5.03;;
83487;SDS011;73424;49.994;8.184;2024-01-06T12:25:04;7.20;;;4.53;;
83487;SDS011;73424;49.994;8.184;2024-01-06T12:27:31;6.90;;;4.55;;
83487;SDS011;73424;49.994;8.184;2024-01-06T12:29:56;6.57;;;4.30;;
83487;SDS011;73424;49.994;8.184;2024-01-06T12:32:22;9.07;;;4.20;;
83487;SDS011;73424;49.994;8.184;2024-01-06T12:34:48;5.35;;;3.85;;
83487;SDS011;73424;49.994;8.184;2024-01-06T12:37:13;8.10;;;4.03;;
83487;SDS011;73424;49.994;8.184;2024-01-06T12:39:39;5.90;;;3.70;;
83487;SDS011;73424;49.994;8.184;2024-01-06T12:42:06;5.43;;;3.67;;
83487;SDS011;73424;49.994;8.184;2024-01-06T12:44:31;6.03;;;3.90;;
83487;SDS011;73424;49.994;8.184;2024-01-06T12:46:58;7.82;;;4.85;;
83487;SDS011;73424;49.994;8.184;2024-01-06T12:49:24;6.18;;;3.78;;
83487;SDS011;73424;49.994;8.184;2024-01-06T12:51:49;6.57;;;4.28;;
83487;SDS011;73424;49.994;8.184;2024-01-06T12:54:15;6.20;;;3.65;;
83487;SDS011;73424;49.994;8.184;2024-01-06T12:56:40;6.95;;;3.75;;
83487;SDS011;73424;49.994;8.184;2024-01-06T12:59:05;5.97;;;3.50;;
83487;SDS011;73424;49.994;8.184;2024-01-06T13:01:31;5.57;;;3.07;;
83487;SDS011;73424;49.994;8.184;2024-01-06T13:03:56;4.73;;;3.47;;
83487;SDS011;73424;49.994;8.184;2024-01-06T13:06:24;6.47;;;3.70;;
83487;SDS011;73424;49.994;8.184;2024-01-06T13:08:50;7.10;;;3.80;;
83487;SDS011;73424;49.994;8.184;2024-01-06T13:11:16;4.88;;;3.15;;
83487;SDS011;73424;49.994;8.184;2024-01-06T13:13:41;5.37;;;3.43;;
83487;SDS011;73424;49.994;8.184;2024-01-06T13:16:06;5.63;;;3.57;;
83487;SDS011;73424;49.994;8.184;2024-01-06T13:18:31;6.07;;;4.03;;
83487;SDS011;73424;49.994;8.184;2024-01-06T13:20:57;6.67;;;3.87;;
83487;SDS011;73424;49.994;8.184;2024-01-06T13:23:22;6.60;;;4.40;;
83487;SDS011;73424;49.994;8.184;2024-01-06T13:25:48;5.95;;;4.32;;
83487;SDS011;73424;49.994;8.184;2024-01-06T13:28:13;6.10;;;4.23;;
83487;SDS011;73424;49.994;8.184;2024-01-06T13:30:39;8.15;;;5.03;;
83487;SDS011;73424;49.994;8.184;2024-01-06T13:33:05;6.72;;;4.63;;
83487;SDS011;73424;49.994;8.184;2024-01-06T13:35:30;6.95;;;4.13;;
83487;SDS011;73424;49.994;8.184;2024-01-06T13:37:56;5.25;;;3.10;;
83487;SDS011;73424;49.994;8.184;2024-01-06T13:40:22;6.20;;;3.67;;
83487;SDS011;73424;49.994;8.184;2024-01-06T13:42:48;5.68;;;3.17;;
83487;SDS011;73424;49.994;8.184;2024-01-06T13:45:13;5.35;;;3.53;;
83487;SDS011;73424;49.994;8.184;2024-01-06T13:47:39;4.82;;;3.28;;
83487;SDS011;73424;49.994;8.184;2024-01-06T13:50:11;6.63;;;3.40;;
83487;SDS011;73424;49.994;8.184;2024-01-06T13:52:38;5.80;;;4.13;;
83487;SDS011;73424;49.994;8.184;2024-01-06T13:55:04;5.80;;;3.42;;
83487;SDS011;73424;49.994;8.184;2024-01-06T13:57:29;4.93;;;2.85;;
83487;SDS011;73424;49.994;8.184;2024-01-06T13:59:55;5.35;;;2.92;;
83487;SDS011;73424;49.994;8.184;2024-01-06T14:02:22;5.85;;;2.90;;
83487;SDS011;73424;49.994;8.184;2024-01-06T14:04:47;5.68;;;3.17;;
83487;SDS011;73424;49.994;8.184;2024-01-06T14:07:13;7.82;;;3.00;;
83487;SDS011;73424;49.994;8.184;2024-01-06T14:09:38;5.70;;;2.47;;
83487;SDS011;73424;49.994;8.184;2024-01-06T14:12:04;6.07;;;2.73;;
83487;SDS011;73424;49.994;8.184;2024-01-06T14:14:31;5.95;;;3.03;;
83487;SDS011;73424;49.994;8.184;2024-01-06T14:16:57;5.68;;;2.80;;
83487;SDS011;73424;49.994;8.184;2024-01-06T14:19:22;20.77;;;3.25;;
83487;SDS011;73424;49.994;8.184;2024-01-06T14:21:48;6.55;;;3.30;;
83487;SDS011;73424;49.994;8.184;2024-01-06T14:24:16;5.85;;;3.00;;
83487;SDS011;73424;49.994;8.184;2024-01-06T14:26:52;5.82;;;3.40;;
83487;SDS011;73424;49.994;8.184;2024-01-06T14:29:18;5.28;;;3.10;;
83487;SDS011;73424;49.994;8.184;2024-01-06T14:31:43;5.65;;;3.63;;
83487;SDS011;73424;49.994;8.184;2024-01-06T14:34:09;6.17;;;3.30;;
83487;SDS011;73424;49.994;8.184;2024-01-06T14:36:34;6.85;;;3.28;;
83487;SDS011;73424;49.994;8.184;2024-01-06T14:38:59;5.47;;;3.23;;
83487;SDS011;73424;49.994;8.184;2024-01-06T14:41:25;6.25;;;3.53;;
83487;SDS011;73424;49.994;8.184;2024-01-06T14:43:51;5.63;;;3.30;;